createdAt,value
2019-05-29T00:03:34.640Z,1.28
2019-05-29T00:08:43.735Z,1.70
2019-05-29T00:13:52.995Z,1.60
2019-05-29T00:19:02.091Z,1.59
2019-05-29T00:24:12.415Z,1.58
2019-05-29T00:29:19.798Z,1.40
2019-05-29T00:34:29.015Z,1.68
2019-05-29T00:39:38.142Z,1.84
2019-05-29T00:44:47.422Z,1.62
2019-05-29T00:49:56.542Z,1.69
2019-05-29T00:55:05.679Z,1.67
2019-05-29T01:00:15.270Z,1.72
2019-05-29T01:05:23.547Z,1.58
2019-05-29T01:10:32.635Z,1.55
2019-05-29T01:15:41.793Z,1.68
2019-05-29T01:20:50.911Z,1.89
2019-05-29T01:26:00.086Z,1.73
2019-05-29T01:31:09.200Z,1.69
2019-05-29T01:36:18.443Z,1.82
2019-05-29T01:41:27.633Z,1.86
2019-05-29T01:46:36.838Z,2.13
2019-05-29T01:51:45.934Z,2.43
2019-05-29T01:56:55.159Z,2.97
2019-05-29T02:02:04.240Z,3.17
2019-05-29T02:07:13.478Z,2.89
2019-05-29T02:12:22.606Z,3.57
2019-05-29T02:17:31.760Z,3.38
2019-05-29T02:22:40.842Z,3.75
2019-05-29T02:27:50.006Z,4.23
2019-05-29T02:32:59.120Z,4.41
2019-05-29T02:38:08.275Z,4.78
2019-05-29T02:43:19.038Z,5.11
2019-05-29T02:48:27.494Z,5.62
2019-05-29T02:53:34.860Z,5.08
2019-05-29T02:58:44.020Z,5.18
2019-05-29T03:03:53.279Z,5.47
2019-05-29T03:09:02.437Z,6.17
2019-05-29T03:14:11.529Z,6.51
2019-05-29T03:19:20.706Z,5.65
2019-05-29T03:24:30.830Z,6.68
2019-05-29T03:29:38.669Z,6.45
2019-05-29T03:34:47.877Z,5.08
2019-05-29T03:39:56.413Z,4.57
2019-05-29T03:45:05.521Z,5.45
2019-05-29T03:50:15.810Z,5.36
2019-05-29T03:55:23.367Z,5.66
2019-05-29T04:00:41.747Z,6.31
2019-05-29T04:05:41.289Z,6.18
2019-05-29T04:10:50.399Z,7.21
2019-05-29T04:15:59.513Z,6.47
2019-05-29T04:21:08.720Z,7.30
2019-05-29T04:26:17.840Z,6.91
2019-05-29T04:31:28.108Z,7.68
2019-05-29T04:36:36.871Z,6.48
2019-05-29T04:41:44.424Z,6.69
2019-05-29T04:47:09.356Z,6.63
2019-05-29T04:52:02.176Z,5.71
2019-05-29T04:57:11.253Z,4.90
2019-05-29T05:02:20.549Z,4.56
2019-05-29T05:07:29.728Z,4.73
2019-05-29T05:12:40.074Z,4.25
2019-05-29T05:17:47.540Z,3.83
2019-05-29T05:22:56.680Z,3.95
2019-05-29T05:28:05.780Z,4.38
2019-05-29T05:33:15.081Z,3.57
2019-05-29T05:38:24.254Z,4.15
2019-05-29T05:43:33.533Z,3.40
2019-05-29T05:48:42.623Z,3.40
2019-05-29T05:53:51.762Z,3.76
2019-05-29T05:59:00.906Z,3.01
2019-05-29T06:04:10.052Z,3.09
2019-05-29T06:09:19.168Z,3.07
2019-05-29T06:14:28.346Z,3.61
2019-05-29T06:19:38.898Z,3.27
2019-05-29T06:24:46.094Z,3.26
2019-05-29T06:29:55.206Z,3.00
2019-05-29T06:35:04.454Z,3.23
2019-05-29T06:40:13.595Z,2.92
2019-05-29T06:45:22.788Z,3.08
2019-05-29T06:50:31.908Z,3.24
2019-05-29T06:55:42.105Z,2.97
2019-05-29T07:00:49.830Z,2.59
2019-05-29T07:05:59.104Z,2.86
2019-05-29T07:11:08.239Z,2.41
2019-05-29T07:16:17.423Z,2.49
2019-05-29T07:21:26.524Z,2.13
2019-05-29T07:26:36.933Z,2.09
2019-05-29T07:31:45.055Z,2.52
2019-05-29T07:36:53.220Z,2.28
2019-05-29T07:42:02.340Z,2.44
2019-05-29T07:47:11.497Z,2.40
2019-05-29T07:52:20.579Z,2.52
2019-05-29T07:57:29.736Z,2.67
2019-05-29T08:02:39.371Z,2.81
2019-05-29T08:07:47.674Z,3.03
2019-05-29T08:12:56.652Z,2.30
2019-05-29T08:18:05.832Z,2.63
2019-05-29T08:23:15.266Z,2.44
2019-05-29T08:28:24.433Z,2.86
2019-05-29T08:33:33.519Z,3.31
2019-05-29T08:38:44.147Z,2.94
2019-05-29T08:43:52.592Z,3.59
2019-05-29T08:49:00.140Z,3.65
2019-05-29T08:54:23.619Z,3.95
2019-05-29T08:59:17.945Z,3.52
2019-05-29T09:04:27.033Z,3.58
2019-05-29T09:09:36.211Z,3.51
2019-05-29T09:14:45.317Z,3.82
2019-05-29T09:19:54.515Z,3.48
2019-05-29T09:25:03.622Z,3.38
2019-05-29T09:30:14.982Z,3.61
2019-05-29T09:35:23.189Z,3.73
2019-05-29T09:40:30.217Z,3.46
2019-05-29T09:45:39.330Z,4.18
2019-05-29T09:50:50.601Z,4.37
2019-05-29T09:55:57.871Z,3.46
2019-05-29T10:01:21.726Z,4.03
2019-05-29T10:06:14.523Z,3.89
2019-05-29T10:11:23.788Z,3.96
2019-05-29T10:16:32.918Z,4.02
2019-05-29T10:21:42.237Z,4.25
2019-05-29T10:26:51.382Z,4.25
2019-05-29T10:32:00.693Z,4.14
2019-05-29T10:37:09.775Z,4.03
2019-05-29T10:42:20.726Z,4.23
2019-05-29T10:47:27.646Z,4.74
2019-05-29T10:52:36.794Z,4.22
2019-05-29T10:57:46.647Z,4.47
2019-05-29T11:02:55.868Z,4.53
2019-05-29T11:08:03.341Z,4.60
2019-05-29T11:13:12.503Z,4.71
2019-05-29T11:18:21.600Z,4.81
2019-05-29T11:23:30.802Z,4.35
2019-05-29T11:28:39.964Z,4.47
2019-05-29T11:33:49.121Z,3.84
2019-05-29T11:39:03.292Z,3.53
2019-05-29T11:44:07.055Z,4.76
2019-05-29T11:49:16.239Z,3.86
2019-05-29T11:54:25.560Z,3.94
2019-05-29T11:59:34.656Z,3.67
2019-05-29T12:04:43.843Z,4.67
2019-05-29T12:09:53.331Z,4.66
2019-05-29T12:15:11.066Z,3.99
2019-05-29T12:20:24.238Z,3.70
2019-05-29T12:25:19.279Z,3.66
2019-05-29T12:30:28.356Z,4.15
2019-05-29T12:35:37.508Z,4.63
2019-05-29T12:40:46.605Z,3.90
2019-05-29T12:45:55.936Z,4.89
2019-05-29T12:51:05.035Z,4.80
2019-05-29T12:56:14.334Z,5.15
2019-05-29T13:01:23.448Z,5.45
2019-05-29T13:06:32.753Z,5.90
2019-05-29T13:11:41.840Z,5.23
2019-05-29T13:16:51.214Z,5.21
2019-05-29T13:22:01.399Z,5.36
2019-05-29T13:27:08.945Z,5.38
2019-05-29T13:32:18.072Z,6.83
2019-05-29T13:37:27.214Z,6.08
2019-05-29T13:42:36.334Z,6.04
2019-05-29T13:47:45.595Z,5.94
2019-05-29T13:52:54.671Z,7.17
2019-05-29T13:58:03.899Z,8.91
2019-05-29T14:03:13.000Z,9.28
2019-05-29T14:08:22.148Z,8.73
2019-05-29T14:13:31.253Z,10.27
2019-05-29T14:18:40.395Z,11.19
2019-05-29T14:23:49.496Z,11.65
2019-05-29T14:28:58.632Z,12.00
2019-05-29T14:34:09.124Z,14.03
2019-05-29T14:39:16.558Z,6.84
2019-05-29T14:44:25.679Z,6.92
2019-05-29T14:49:35.208Z,8.01
2019-05-29T14:54:44.295Z,5.95
2019-05-29T14:59:53.545Z,4.99
2019-05-29T15:05:03.744Z,5.77
2019-05-29T15:10:24.832Z,6.01
2019-05-29T15:15:14.343Z,9.42
2019-05-29T15:20:21.853Z,6.00
2019-05-29T15:25:30.975Z,10.55
2019-05-29T15:30:40.176Z,14.94
2019-05-29T15:35:49.256Z,12.97
2019-05-29T15:40:58.553Z,12.43
2019-05-29T15:46:09.982Z,14.12
2019-05-29T15:51:17.142Z,11.20
2019-05-29T15:56:27.944Z,10.60
2019-05-29T16:01:33.915Z,9.84
2019-05-29T16:06:43.090Z,8.93
2019-05-29T16:11:52.284Z,9.33
2019-05-29T16:17:01.421Z,11.47
2019-05-29T16:22:10.757Z,10.50
2019-05-29T16:27:19.863Z,11.67
2019-05-29T16:32:28.999Z,9.34
2019-05-29T16:37:38.123Z,7.27
2019-05-29T16:42:47.286Z,7.58
2019-05-29T16:47:56.434Z,5.81
2019-05-29T16:53:05.585Z,14.43
2019-05-29T16:58:14.969Z,14.90
2019-05-29T17:03:23.980Z,11.53
2019-05-29T17:08:33.131Z,12.51
2019-05-29T17:13:42.299Z,14.18
2019-05-29T17:18:51.522Z,14.98
2019-05-29T17:24:00.805Z,13.17
2019-05-29T17:29:09.919Z,17.56
2019-05-29T17:34:19.187Z,17.78
2019-05-29T17:39:28.302Z,14.91
2019-05-29T17:44:37.596Z,14.09
2019-05-29T17:49:46.682Z,17.86
2019-05-29T17:54:55.912Z,13.53
2019-05-29T18:00:05.092Z,13.52
2019-05-29T18:05:14.451Z,10.69
2019-05-29T18:10:24.123Z,10.05
2019-05-29T18:15:32.047Z,10.62
2019-05-29T18:20:41.155Z,9.36
2019-05-29T18:25:50.385Z,6.41
2019-05-29T18:30:59.547Z,4.12
2019-05-29T18:36:08.776Z,2.45
2019-05-29T18:41:17.911Z,2.17
2019-05-29T18:46:27.248Z,1.85
2019-05-29T18:51:36.185Z,1.79
2019-05-29T18:57:13.250Z,2.52
2019-05-29T19:01:53.983Z,2.22
2019-05-29T19:07:03.360Z,2.18
2019-05-29T19:12:12.451Z,1.92
2019-05-29T19:17:22.044Z,1.96
2019-05-29T19:22:30.576Z,2.23
2019-05-29T19:27:41.838Z,2.61
2019-05-29T19:32:47.820Z,2.69
2019-05-29T19:37:57.113Z,1.90
2019-05-29T19:43:06.324Z,2.16
2019-05-29T19:48:15.578Z,2.31
2019-05-29T19:53:26.428Z,1.75
2019-05-29T19:58:33.884Z,2.10
2019-05-29T20:03:42.068Z,2.00
2019-05-29T20:08:51.289Z,2.26
2019-05-29T20:14:00.376Z,2.88
2019-05-29T20:19:09.651Z,2.17
2019-05-29T20:24:18.735Z,1.95
2019-05-29T20:29:28.116Z,1.91
2019-05-29T20:34:37.200Z,2.26
2019-05-29T20:39:46.528Z,2.27
2019-05-29T20:44:55.600Z,1.98
2019-05-29T20:50:04.762Z,2.13
2019-05-29T20:55:13.885Z,1.84
2019-05-29T21:00:23.198Z,2.30
2019-05-29T21:05:32.476Z,2.00
2019-05-29T21:10:43.582Z,1.86
2019-05-29T21:15:51.156Z,1.85
2019-05-29T21:21:00.266Z,1.72
2019-05-29T21:26:09.368Z,1.85
2019-05-29T21:31:18.575Z,2.25
2019-05-29T21:36:27.690Z,1.57
2019-05-29T21:41:36.819Z,1.95
2019-05-29T21:46:47.137Z,1.61
2019-05-29T21:51:54.752Z,2.05
2019-05-29T21:57:03.935Z,2.05
2019-05-29T22:02:13.259Z,2.03
2019-05-29T22:07:22.342Z,2.15
2019-05-29T22:12:31.531Z,1.98
2019-05-29T22:17:40.647Z,2.21
2019-05-29T22:22:51.064Z,2.09
2019-05-29T22:27:59.546Z,2.33
2019-05-29T22:33:07.437Z,2.17
2019-05-29T22:38:16.525Z,2.60
2019-05-29T22:43:25.826Z,2.56
2019-05-29T22:48:35.006Z,2.37
2019-05-29T22:53:44.156Z,2.12
2019-05-29T22:58:53.986Z,2.19
2019-05-29T23:04:02.591Z,2.27
2019-05-29T23:09:10.585Z,2.12
2019-05-29T23:14:19.811Z,2.10
2019-05-29T23:19:28.886Z,2.05
2019-05-29T23:24:38.123Z,2.35
2019-05-29T23:29:49.255Z,2.12
2019-05-29T23:34:57.077Z,2.84
2019-05-29T23:40:04.523Z,2.68
2019-05-29T23:45:13.836Z,3.25
2019-05-29T23:50:22.928Z,2.65
2019-05-29T23:55:32.082Z,3.12
